Time;durP1;ratioP1;P1;durP2;ratioP2;P2;SDS_P1;SDS_P2;PMS_P1;PMS_P2;Temp;Humidity;BMP_temperature;BMP_pressure;BME280_temperature;BME280_humidity;BME280_pressure;Samples;Min_cycle;Max_cycle;Signal;HPM_P1;HPM_P2
2023/08/05 00:05:01;;;;;;;1.70;0.68;;;;;;;18.76;63.78;97487.56;10377013;28;20081;-64
2023/08/05 00:10:22;;;;;;;2.67;0.65;;;;;;;18.72;63.54;97473.28;10376861;28;20077;-64
2023/08/05 00:15:43;;;;;;;1.17;0.50;;;;;;;18.68;63.95;97470.34;10376610;28;20073;-64
2023/08/05 00:21:03;;;;;;;1.40;0.70;;;;;;;18.70;63.87;97470.41;10376351;28;20494;-64
2023/08/05 00:26:24;;;;;;;3.75;0.88;;;;;;;18.65;64.27;97471.66;10376304;28;20077;-63
2023/08/05 00:31:46;;;;;;;1.63;0.68;;;;;;;18.61;64.48;97475.03;10375833;28;20096;-65
2023/08/05 00:37:07;;;;;;;1.65;0.77;;;;;;;18.56;64.84;97460.06;10361007;28;20077;-65
2023/08/05 00:42:28;;;;;;;1.27;0.60;;;;;;;18.53;65.30;97455.03;10375528;28;20122;-66
2023/08/05 00:47:49;;;;;;;4.20;0.80;;;;;;;18.44;65.36;97447.66;10375674;28;20229;-65
2023/08/05 00:53:09;;;;;;;3.13;0.88;;;;;;;18.39;65.93;97443.97;10375490;28;20113;-65
2023/08/05 00:58:32;;;;;;;2.70;0.90;;;;;;;18.35;66.08;97446.69;10374120;28;20116;-63
2023/08/05 01:03:53;;;;;;;3.30;0.73;;;;;;;18.29;66.39;97443.66;10360382;28;20196;-63
2023/08/05 01:09:14;;;;;;;1.33;0.68;;;;;;;18.21;66.74;97429.97;10373898;28;20069;-63
2023/08/05 01:14:34;;;;;;;1.15;0.70;;;;;;;18.15;67.13;97434.72;10359640;28;20461;-63
2023/08/05 01:19:55;;;;;;;2.42;0.68;;;;;;;18.11;67.19;97423.28;10374303;28;20049;-63
2023/08/05 01:25:24;;;;;;;1.80;0.90;;;;;;;18.08;67.70;97430.25;10373504;28;20062;-63
2023/08/05 01:30:45;;;;;;;7.03;0.80;;;;;;;18.06;68.17;97427.34;10359866;28;20129;-64
2023/08/05 01:36:06;;;;;;;1.45;0.75;;;;;;;18.04;68.22;97425.16;10373157;28;20088;-64
2023/08/05 01:41:26;;;;;;;2.28;0.80;;;;;;;17.98;68.34;97424.97;10374205;28;20596;-65
2023/08/05 01:46:47;;;;;;;1.77;0.90;;;;;;;17.93;68.78;97417.75;10372877;28;20058;-64
2023/08/05 01:52:08;;;;;;;1.58;0.63;;;;;;;17.91;69.21;97417.69;10359401;28;20161;-65
2023/08/05 01:57:29;;;;;;;4.90;1.13;;;;;;;17.89;70.02;97400.69;10372584;28;20145;-64
2023/08/05 02:02:50;;;;;;;2.55;0.85;;;;;;;17.94;70.36;97388.13;10372473;28;20073;-64
2023/08/05 02:08:11;;;;;;;5.07;0.95;;;;;;;17.91;70.24;97387.34;10373131;28;20096;-65
2023/08/05 02:13:32;;;;;;;3.08;1.00;;;;;;;17.95;70.63;97381.84;10358508;28;20072;-65
2023/08/05 02:18:54;;;;;;;3.20;1.13;;;;;;;17.91;70.60;97386.63;10372234;28;20117;-65
2023/08/05 02:24:15;;;;;;;2.03;1.08;;;;;;;17.83;70.47;97380.69;10377872;28;20066;-64
2023/08/05 02:29:36;;;;;;;4.00;1.27;;;;;;;17.78;71.20;97384.78;10380901;28;20130;-64
2023/08/05 02:34:56;;;;;;;2.30;1.25;;;;;;;17.72;71.47;97393.75;10380540;28;20069;-64
2023/08/05 02:40:17;;;;;;;1.40;0.95;;;;;;;17.71;71.27;97401.50;10380341;28;20475;-64
2023/08/05 02:45:39;;;;;;;3.10;1.20;;;;;;;17.71;71.84;97406.41;10380356;28;20073;-65
2023/08/05 02:50:59;;;;;;;3.05;1.45;;;;;;;17.69;71.79;97390.16;10379899;28;20424;-65
2023/08/05 02:56:20;;;;;;;2.72;1.00;;;;;;;17.66;72.10;97391.44;10379976;28;20042;-65
2023/08/05 03:01:41;;;;;;;1.48;1.13;;;;;;;17.62;71.93;97391.28;10378555;28;20544;-65
2023/08/05 03:07:01;;;;;;;2.42;1.40;;;;;;;17.54;71.92;97391.00;10379438;28;20147;-65
2023/08/05 03:12:22;;;;;;;3.38;1.30;;;;;;;17.46;72.02;97385.78;10364459;28;20057;-65
2023/08/05 03:17:44;;;;;;;2.50;1.00;;;;;;;17.41;72.36;97381.41;10378105;28;20081;-64
2023/08/05 03:23:08;;;;;;;2.63;1.00;;;;;;;17.43;72.79;97398.38;10377895;28;20064;-65
2023/08/05 03:28:29;;;;;;;2.95;1.13;;;;;;;17.45;73.00;97401.28;10377332;28;20042;-66
2023/08/05 03:33:51;;;;;;;2.15;0.98;;;;;;;17.44;73.03;97397.00;10376595;28;20165;-65
2023/08/05 03:39:13;;;;;;;2.75;1.15;;;;;;;17.42;73.12;97401.88;10378105;28;20129;-64
2023/08/05 03:44:34;;;;;;;1.83;1.00;;;;;;;17.42;73.61;97399.03;10378083;28;20136;-66
2023/08/05 03:49:54;;;;;;;1.90;0.70;;;;;;;17.40;73.06;97404.63;10377563;28;20129;-65
2023/08/05 03:55:16;;;;;;;2.83;0.80;;;;;;;17.37;73.10;97392.56;10376578;28;20081;-65
2023/08/05 04:00:41;;;;;;;3.38;1.15;;;;;;;17.41;73.10;97409.59;10377333;28;20121;-65
2023/08/05 04:06:02;;;;;;;2.38;1.00;;;;;;;17.46;73.31;97404.81;10362337;28;20054;-65
2023/08/05 04:11:23;;;;;;;2.38;1.00;;;;;;;17.49;73.39;97405.63;10376980;28;20115;-66
2023/08/05 04:16:44;;;;;;;3.53;1.35;;;;;;;17.58;73.60;97393.25;10376591;28;20117;-66
2023/08/05 04:22:05;;;;;;;2.10;1.08;;;;;;;17.63;73.06;97401.19;10375684;28;20073;-65
2023/08/05 04:27:26;;;;;;;2.72;1.15;;;;;;;17.71;73.19;97400.78;10375239;28;20165;-65
2023/08/05 04:32:46;;;;;;;2.55;1.23;;;;;;;17.82;73.07;97402.56;10375096;28;20046;-65
2023/08/05 04:38:07;;;;;;;4.68;1.15;;;;;;;17.91;72.93;97398.63;10376046;28;20117;-65
2023/08/05 04:43:28;;;;;;;4.75;1.38;;;;;;;18.00;73.01;97396.81;10375656;28;20143;-65
2023/08/05 04:48:49;;;;;;;2.63;1.23;;;;;;;18.12;72.96;97399.28;10375431;28;20558;-64
2023/08/05 04:54:10;;;;;;;2.33;1.15;;;;;;;18.20;72.29;97386.16;10374561;28;20563;-65
2023/08/05 04:59:30;;;;;;;2.67;1.20;;;;;;;18.28;72.60;97389.25;10375245;28;20070;-64
2023/08/05 05:04:51;;;;;;;2.28;1.10;;;;;;;18.30;72.50;97383.66;10374713;28;20054;-64
2023/08/05 05:10:12;;;;;;;3.00;1.40;;;;;;;18.35;72.69;97378.88;10374783;28;20046;-64
2023/08/05 05:15:32;;;;;;;4.25;1.50;;;;;;;18.36;72.07;97380.31;10375053;28;20124;-64
2023/08/05 05:20:54;;;;;;;5.80;1.25;;;;;;;18.43;72.20;97376.31;10373548;28;20125;-65
2023/08/05 05:26:15;;;;;;;1.67;0.93;;;;;;;18.54;71.88;97386.53;10374481;28;20065;-65
2023/08/05 05:31:36;;;;;;;2.80;1.13;;;;;;;18.72;71.94;97388.47;10374211;28;20521;-65
2023/08/05 05:36:56;;;;;;;4.40;1.30;;;;;;;18.80;71.67;97392.25;10374187;28;20473;-64
2023/08/05 05:42:17;;;;;;;2.42;1.15;;;;;;;18.95;71.36;97384.94;10373984;28;20070;-65
2023/08/05 05:47:38;;;;;;;2.63;1.23;;;;;;;19.15;71.29;97391.16;10374216;28;20125;-64
2023/08/05 05:52:59;;;;;;;4.90;1.35;;;;;;;19.31;70.80;97384.53;10373777;28;20050;-65
2023/08/05 05:58:20;;;;;;;3.60;1.55;;;;;;;19.42;70.15;97372.09;10377225;28;20045;-64
2023/08/05 06:03:42;;;;;;;3.50;1.40;;;;;;;19.35;69.14;97378.97;10381125;28;20104;-65
2023/08/05 06:09:03;;;;;;;3.92;1.55;;;;;;;19.17;69.91;97384.84;10381766;28;20133;-65
2023/08/05 06:14:24;;;;;;;2.97;1.40;;;;;;;19.20;70.06;97386.34;10367028;28;20069;-66
2023/08/05 06:19:45;;;;;;;3.67;1.40;;;;;;;19.34;69.95;97388.84;10380237;28;20077;-65
2023/08/05 06:25:05;;;;;;;2.95;1.40;;;;;;;19.56;69.88;97385.91;10380155;28;20050;-65
2023/08/05 06:30:26;;;;;;;4.88;1.10;;;;;;;19.75;69.52;97390.66;10381173;28;20070;-65
2023/08/05 06:35:47;;;;;;;4.28;1.50;;;;;;;19.87;69.18;97399.47;10380827;28;20196;-65
2023/08/05 06:41:08;;;;;;;4.57;1.33;;;;;;;19.95;68.88;97393.31;10379657;28;20479;-65
2023/08/05 06:46:29;;;;;;;2.88;1.30;;;;;;;20.03;68.31;97399.16;10380152;28;20057;-65
2023/08/05 06:51:50;;;;;;;3.80;1.48;;;;;;;20.13;68.20;97399.41;10380209;28;20076;-65
2023/08/05 06:57:13;;;;;;;4.35;1.50;;;;;;;20.13;68.08;97405.09;10379794;28;20133;-65
2023/08/05 07:02:34;;;;;;;4.10;1.30;;;;;;;20.14;68.00;97409.38;10379622;28;20128;-65
2023/08/05 07:07:55;;;;;;;7.28;1.60;;;;;;;20.16;67.76;97408.69;10379123;28;20058;-64
2023/08/05 07:13:16;;;;;;;2.38;1.13;;;;;;;20.15;67.63;97407.97;10379218;28;20118;-65
2023/08/05 07:18:36;;;;;;;6.07;1.58;;;;;;;20.14;67.62;97412.19;10379130;28;20085;-65
2023/08/05 07:23:57;;;;;;;4.25;1.33;;;;;;;20.08;67.59;97405.69;10378830;28;20116;-65
2023/08/05 07:29:18;;;;;;;3.13;1.30;;;;;;;20.04;67.42;97414.78;10378591;28;20073;-64
2023/08/05 07:34:39;;;;;;;3.08;1.52;;;;;;;20.16;67.65;97409.41;10378370;28;20073;-65
2023/08/05 07:40:00;;;;;;;4.47;1.30;;;;;;;20.29;67.40;97419.66;10378164;28;20481;-65
2023/08/05 07:45:21;;;;;;;3.08;1.60;;;;;;;20.47;67.56;97407.34;10377722;28;20077;-65
2023/08/05 07:50:42;;;;;;;2.20;1.20;;;;;;;20.66;67.71;97394.31;10377985;28;20046;-65
2023/08/05 07:56:13;;;;;;;3.60;1.30;;;;;;;20.70;67.15;97386.59;10377867;28;20088;-65
2023/08/05 08:01:34;;;;;;;4.53;1.77;;;;;;;20.80;66.95;97386.81;10376389;28;20117;-65
2023/08/05 08:06:55;;;;;;;3.40;1.50;;;;;;;20.75;67.02;97390.97;10376957;28;20441;-65
2023/08/05 08:12:16;;;;;;;4.07;1.98;;;;;;;20.72;67.88;97388.75;10375834;28;20527;-65
2023/08/05 08:17:36;;;;;;;3.35;1.77;;;;;;;20.79;67.95;97384.66;10376630;28;20120;-65
2023/08/05 08:23:00;;;;;;;2.30;1.70;;;;;;;21.20;68.06;97386.22;10376192;28;20128;-65
2023/08/05 08:28:22;;;;;;;2.70;1.38;;;;;;;21.36;67.14;97386.59;10376321;28;20076;-65
2023/08/05 08:33:45;;;;;;;4.40;1.52;;;;;;;21.52;66.95;97379.75;10376065;28;20077;-65
2023/08/05 08:39:06;;;;;;;4.15;1.77;;;;;;;21.45;67.31;97395.25;10375643;28;20516;-65
2023/08/05 08:44:29;;;;;;;3.00;1.80;;;;;;;20.98;67.19;97399.97;10375781;28;20129;-65
2023/08/05 08:49:51;;;;;;;4.65;2.03;;;;;;;20.66;68.24;97389.34;10375516;28;20070;-65
2023/08/05 08:55:11;;;;;;;5.65;1.90;;;;;;;20.45;68.36;97387.44;10360830;28;20065;-65
2023/08/05 09:00:33;;;;;;;6.07;2.70;;;;;;;20.25;69.08;97391.22;10360653;28;20121;-65
2023/08/05 09:05:55;;;;;;;4.82;2.30;;;;;;;20.24;69.33;97392.59;10375080;28;20129;-65
2023/08/05 09:11:16;;;;;;;5.07;2.20;;;;;;;20.09;69.56;97396.50;10374114;28;20073;-65
2023/08/05 09:16:55;;;;;;;7.00;2.17;;;;;;;19.87;70.23;97401.59;10374648;28;20069;-65
2023/08/05 09:22:15;;;;;;;5.18;2.45;;;;;;;19.92;69.86;97391.81;10373562;28;20068;-65
2023/08/05 09:27:50;;;;;;;5.40;2.55;;;;;;;19.91;70.89;97407.38;10373098;28;20176;-65
2023/08/05 09:33:11;;;;;;;6.28;2.67;;;;;;;20.05;70.88;97407.72;10372356;28;20038;-65
2023/08/05 09:38:32;;;;;;;6.25;2.53;;;;;;;20.24;70.47;97415.28;10359318;28;20505;-65
2023/08/05 09:43:54;;;;;;;4.28;2.10;;;;;;;20.62;71.24;97411.94;10372809;28;20097;-65
2023/08/05 09:49:17;;;;;;;4.73;2.13;;;;;;;20.81;69.94;97413.06;10372938;28;20507;-65
2023/08/05 09:54:38;;;;;;;4.55;2.05;;;;;;;21.07;69.84;97418.59;10373007;28;20045;-65
2023/08/05 09:59:59;;;;;;;3.28;1.80;;;;;;;21.46;68.73;97422.25;10372345;28;20144;-65
2023/08/05 10:05:24;;;;;;;5.45;2.00;;;;;;;21.57;68.52;97421.03;10373642;28;20133;-65
2023/08/05 10:10:46;;;;;;;7.05;2.20;;;;;;;21.42;67.64;97428.56;10372460;28;20488;-65
2023/08/05 10:16:09;;;;;;;6.93;2.20;;;;;;;21.26;66.77;97428.97;10358909;28;20564;-65
2023/08/05 10:21:37;;;;;;;4.43;2.13;;;;;;;21.40;67.63;97420.72;10358354;28;20072;-65
2023/08/05 10:27:08;;;;;;;4.43;1.80;;;;;;;21.72;67.18;97422.75;10372247;28;20045;-65
2023/08/05 10:32:29;;;;;;;5.43;1.98;;;;;;;22.26;66.37;97422.28;10346010;28;20512;-65
2023/08/05 10:37:50;;;;;;;4.55;1.48;;;;;;;22.69;64.76;97420.84;10372939;28;20074;-65
2023/08/05 10:43:11;;;;;;;5.25;2.05;;;;;;;22.97;63.63;97412.03;10374367;28;20066;-65
2023/08/05 10:48:45;;;;;;;4.85;1.73;;;;;;;23.28;61.52;97404.59;10379919;28;20054;-65
2023/08/05 10:54:07;;;;;;;4.70;1.95;;;;;;;23.41;61.53;97408.28;10378714;28;20072;-65
2023/08/05 10:59:34;;;;;;;7.50;2.03;;;;;;;23.40;60.49;97406.84;10379518;28;20070;-65
2023/08/05 11:05:06;;;;;;;3.50;1.90;;;;;;;23.46;59.87;97391.97;10365636;28;20513;-65
2023/08/05 11:10:29;;;;;;;5.43;1.73;;;;;;;23.88;59.20;97383.16;10379308;28;20070;-65
2023/08/05 11:16:03;;;;;;;3.03;1.70;;;;;;;24.11;58.73;97379.09;10378058;28;20073;-65
2023/08/05 11:21:24;;;;;;;4.55;2.00;;;;;;;23.60;58.42;97378.63;10378716;28;20113;-66
2023/08/05 11:26:49;;;;;;;6.75;1.90;;;;;;;23.04;58.80;97378.66;10377569;28;20046;-65
2023/08/05 11:32:09;;;;;;;6.80;1.40;;;;;;;22.43;59.71;97378.50;10377240;28;20045;-65
2023/08/05 11:37:36;;;;;;;3.22;1.60;;;;;;;21.95;60.13;97370.59;10377279;28;20129;-65
2023/08/05 11:42:57;;;;;;;2.85;1.70;;;;;;;21.39;60.58;97361.78;10377857;28;20041;-65
2023/08/05 11:48:21;;;;;;;3.58;1.30;;;;;;;21.21;61.58;97364.97;10377648;28;20049;-64
2023/08/05 11:53:47;;;;;;;3.88;1.88;;;;;;;20.91;62.33;97361.50;10377575;28;20114;-65
2023/08/05 11:59:08;;;;;;;5.13;1.83;;;;;;;20.76;62.64;97358.38;10376316;28;20543;-65
2023/08/05 12:04:28;;;;;;;3.28;1.70;;;;;;;20.83;62.69;97351.44;10377210;28;20473;-65
2023/08/05 12:10:08;;;;;;;2.92;1.48;;;;;;;20.70;62.69;97349.75;10377078;28;20370;-65
2023/08/05 12:15:30;;;;;;;4.55;1.60;;;;;;;20.63;62.78;97353.13;10376714;28;20125;-65
2023/08/05 12:20:51;;;;;;;2.97;1.33;;;;;;;20.73;62.75;97365.38;10375868;28;20050;-65
2023/08/05 12:26:14;;;;;;;3.65;1.23;;;;;;;20.75;62.43;97356.19;10375404;28;20119;-65
2023/08/05 12:31:35;;;;;;;3.75;1.23;;;;;;;20.86;62.10;97355.03;10376358;28;20129;-64
2023/08/05 12:36:56;;;;;;;2.53;1.27;;;;;;;20.92;62.06;97343.09;10375965;28;20046;-65
2023/08/05 12:42:17;;;;;;;6.30;1.17;;;;;;;20.84;62.18;97352.88;10375888;28;20500;-65
2023/08/05 12:47:38;;;;;;;2.85;1.30;;;;;;;20.74;62.07;97343.41;10375812;28;20045;-65
2023/08/05 12:53:00;;;;;;;3.35;1.30;;;;;;;20.66;62.67;97349.66;10374485;28;20471;-65
2023/08/05 12:58:20;;;;;;;4.30;1.10;;;;;;;20.45;63.41;97344.91;10375244;28;20077;-65
2023/08/05 13:03:41;;;;;;;2.63;1.17;;;;;;;20.41;63.33;97342.69;10373967;28;20134;-66
2023/08/05 13:09:02;;;;;;;4.00;1.33;;;;;;;20.34;63.32;97341.09;10374979;28;20077;-65
2023/08/05 13:14:23;;;;;;;4.65;0.95;;;;;;;20.26;64.18;97338.81;10373661;28;20126;-65
2023/08/05 13:19:43;;;;;;;3.22;1.10;;;;;;;20.09;64.93;97331.34;10374521;28;20161;-66
2023/08/05 13:25:04;;;;;;;2.00;1.00;;;;;;;20.18;64.91;97335.81;10374421;28;20042;-64
2023/08/05 13:30:25;;;;;;;3.03;1.38;;;;;;;20.25;64.46;97330.97;10374345;28;20046;-65
2023/08/05 13:35:46;;;;;;;3.22;1.15;;;;;;;19.96;65.22;97335.25;10374403;28;20076;-65
2023/08/05 13:41:07;;;;;;;2.92;1.20;;;;;;;19.72;65.97;97321.94;10374087;28;20126;-65
2023/08/05 13:46:28;;;;;;;3.22;1.35;;;;;;;19.61;66.48;97322.38;10345754;28;20132;-65
2023/08/05 13:51:50;;;;;;;5.60;1.73;;;;;;;19.50;66.60;97304.38;10373803;28;20152;-65
2023/08/05 13:57:12;;;;;;;3.33;1.30;;;;;;;19.31;67.54;97300.34;10373768;28;20046;-65
2023/08/05 14:02:33;;;;;;;3.05;1.23;;;;;;;19.21;67.74;97297.25;10373697;28;20121;-65
2023/08/05 14:07:54;;;;;;;3.83;1.30;;;;;;;19.08;68.38;97279.22;10372682;28;20415;-65
2023/08/05 14:13:14;;;;;;;2.85;1.30;;;;;;;19.17;68.33;97285.81;10372718;28;20093;-65
2023/08/05 14:18:35;;;;;;;3.72;1.10;;;;;;;19.20;68.42;97283.75;10375490;28;20076;-65
2023/08/05 14:23:56;;;;;;;2.55;1.23;;;;;;;19.06;68.83;97279.19;10380487;28;20042;-65
2023/08/05 14:29:17;;;;;;;2.65;1.27;;;;;;;18.96;69.04;97281.00;10381110;28;20046;-65
2023/08/05 14:34:37;;;;;;;3.30;1.00;;;;;;;18.92;69.44;97280.91;10380877;28;20066;-65
2023/08/05 14:39:58;;;;;;;2.53;1.40;;;;;;;18.91;70.01;97282.28;10380632;28;20070;-65
2023/08/05 14:45:19;;;;;;;3.10;1.20;;;;;;;18.88;70.13;97276.56;10379550;28;20042;-65
2023/08/05 14:50:40;;;;;;;2.42;1.17;;;;;;;18.83;70.19;97285.63;10380572;28;20465;-65
2023/08/05 14:56:01;;;;;;;2.58;1.33;;;;;;;18.59;70.32;97282.78;10379954;28;20492;-65
2023/08/05 15:01:22;;;;;;;6.57;1.50;;;;;;;18.48;71.08;97278.94;10379907;28;20057;-65
2023/08/05 15:06:43;;;;;;;3.88;1.30;;;;;;;18.29;71.60;97274.13;10379692;28;20062;-65
2023/08/05 15:12:04;;;;;;;3.08;1.30;;;;;;;18.27;72.02;97266.34;10379595;28;20078;-65
2023/08/05 15:17:24;;;;;;;2.92;1.30;;;;;;;18.38;72.63;97280.75;10378333;28;20062;-65
2023/08/05 15:22:45;;;;;;;3.35;1.80;;;;;;;18.48;71.88;97278.22;10379122;28;20524;-65
2023/08/05 15:28:05;;;;;;;4.20;1.90;;;;;;;18.43;71.97;97277.41;10378937;28;20080;-65
2023/08/05 15:33:26;;;;;;;3.25;1.73;;;;;;;18.46;72.40;97281.00;10376763;28;20130;-65
2023/08/05 15:38:47;;;;;;;5.57;1.85;;;;;;;18.40;72.48;97273.06;10377497;28;20062;-65
2023/08/05 15:44:08;;;;;;;3.72;2.10;;;;;;;18.45;73.01;97265.44;10378172;28;20074;-64
2023/08/05 15:49:29;;;;;;;4.55;2.35;;;;;;;18.33;73.96;97268.59;10377954;28;20168;-65
2023/08/05 15:54:50;;;;;;;4.10;2.03;;;;;;;18.17;74.14;97266.03;10376427;28;20515;-64
2023/08/05 16:00:11;;;;;;;4.68;2.47;;;;;;;18.18;74.14;97266.75;10377382;28;20066;-64
2023/08/05 16:05:32;;;;;;;4.65;2.75;;;;;;;18.21;74.99;97259.78;10375717;28;20460;-64
2023/08/05 16:11:05;;;;;;;4.47;2.70;;;;;;;18.25;75.58;97260.63;10376905;28;20168;-64
2023/08/05 16:16:27;;;;;;;3.53;2.55;;;;;;;18.24;74.65;97250.00;10376764;28;20073;-64
2023/08/05 16:21:48;;;;;;;6.50;3.17;;;;;;;18.12;75.21;97252.44;10361817;28;20125;-64
2023/08/05 16:27:09;;;;;;;5.07;2.35;;;;;;;18.09;76.16;97246.00;10376417;28;20133;-64
2023/08/05 16:32:30;;;;;;;4.45;2.30;;;;;;;18.05;76.33;97234.59;10375965;28;20120;-64
2023/08/05 16:37:53;;;;;;;5.57;2.22;;;;;;;17.95;76.47;97237.84;10376109;28;20097;-64
2023/08/05 16:43:14;;;;;;;3.42;2.28;;;;;;;17.82;76.79;97236.00;10375977;28;20482;-63
2023/08/05 16:48:35;;;;;;;3.25;2.22;;;;;;;17.68;77.19;97241.19;10375699;28;20552;-64
2023/08/05 16:53:56;;;;;;;5.35;2.10;;;;;;;17.61;77.56;97248.72;10375458;28;20161;-64
2023/08/05 16:59:16;;;;;;;3.70;2.50;;;;;;;17.52;77.84;97249.13;10375226;28;20172;-64
2023/08/05 17:04:38;;;;;;;4.45;2.30;;;;;;;17.43;78.33;97245.31;10375086;28;20500;-65
2023/08/05 17:09:58;;;;;;;4.18;2.40;;;;;;;17.38;78.65;97258.59;10374146;28;20088;-65
2023/08/05 17:15:19;;;;;;;6.22;2.65;;;;;;;17.38;79.58;97252.22;10374642;28;20130;-64
2023/08/05 17:20:42;;;;;;;4.25;2.17;;;;;;;17.34;78.87;97247.16;10374855;28;20042;-65
2023/08/05 17:26:02;;;;;;;4.03;1.98;;;;;;;17.21;79.47;97248.13;10359944;28;20088;-65
2023/08/05 17:31:23;;;;;;;3.55;2.22;;;;;;;17.21;80.07;97255.88;10374579;28;20092;-65
2023/08/05 17:36:44;;;;;;;5.30;2.40;;;;;;;17.13;79.88;97250.66;10374329;28;20065;-64
2023/08/05 17:42:05;;;;;;;7.18;2.58;;;;;;;17.06;80.37;97254.66;10373318;28;20120;-65
2023/08/05 17:47:26;;;;;;;8.98;2.40;;;;;;;17.07;80.65;97247.63;10373042;28;20137;-65
2023/08/05 17:52:46;;;;;;;4.00;2.67;;;;;;;17.09;81.35;97242.09;10374935;28;20512;-65
2023/08/05 17:58:07;;;;;;;4.45;2.38;;;;;;;17.10;81.22;97241.44;10382422;28;20108;-65
2023/08/05 18:03:32;;;;;;;3.95;2.25;;;;;;;17.09;81.21;97228.72;10380948;28;20200;-64
2023/08/05 18:08:53;;;;;;;5.80;2.20;;;;;;;17.09;81.33;97227.97;10382075;28;20046;-65
2023/08/05 18:14:14;;;;;;;2.72;2.10;;;;;;;17.03;81.54;97224.94;10381816;28;20097;-66
2023/08/05 18:19:35;;;;;;;5.45;2.20;;;;;;;16.97;81.51;97227.56;10381644;28;20121;-65
2023/08/05 18:24:56;;;;;;;3.00;1.88;;;;;;;16.88;81.99;97220.91;10380362;28;20113;-65
2023/08/05 18:30:17;;;;;;;4.18;2.22;;;;;;;16.81;81.85;97222.09;10381003;28;20233;-64
2023/08/05 18:35:37;;;;;;;3.38;2.10;;;;;;;16.73;81.95;97219.72;10381167;28;20072;-65
2023/08/05 18:40:58;;;;;;;2.85;2.50;;;;;;;16.70;82.08;97217.47;10380565;28;20169;-66
2023/08/05 18:46:19;;;;;;;7.00;2.70;;;;;;;16.66;82.07;97228.56;10380624;28;20084;-65
2023/08/05 18:51:40;;;;;;;3.42;1.90;;;;;;;16.65;82.70;97216.56;10380101;28;20072;-65
2023/08/05 18:57:01;;;;;;;3.67;2.38;;;;;;;16.61;83.16;97208.00;10379992;28;20042;-65
2023/08/05 19:02:23;;;;;;;3.65;2.42;;;;;;;16.57;82.96;97216.28;10365004;28;20045;-64
2023/08/05 19:07:44;;;;;;;3.65;1.98;;;;;;;16.55;82.64;97204.94;10378421;28;20103;-64
2023/08/05 19:13:05;;;;;;;4.32;2.45;;;;;;;16.47;83.50;97196.91;10378688;28;20098;-64
2023/08/05 19:18:26;;;;;;;3.63;2.35;;;;;;;16.47;83.72;97202.56;10378279;28;20050;-64
2023/08/05 19:23:46;;;;;;;7.72;2.80;;;;;;;16.47;84.11;97179.31;10378156;28;20116;-65
2023/08/05 19:29:07;;;;;;;5.25;2.88;;;;;;;16.43;83.90;97181.97;10378651;28;20057;-65
2023/08/05 19:34:28;;;;;;;8.77;3.00;;;;;;;16.40;84.11;97163.53;10377724;28;20084;-65
2023/08/05 19:39:52;;;;;;;3.33;2.38;;;;;;;16.38;83.99;97163.47;10377276;28;20078;-65
2023/08/05 19:45:13;;;;;;;5.45;2.88;;;;;;;16.35;84.08;97154.25;10377167;28;20554;-64
2023/08/05 19:50:36;;;;;;;5.13;2.40;;;;;;;16.28;83.94;97158.94;10376958;28;20095;-64
2023/08/05 19:55:57;;;;;;;5.82;2.17;;;;;;;16.25;84.76;97177.13;10377804;28;20488;-64
2023/08/05 20:01:18;;;;;;;3.72;2.55;;;;;;;16.21;84.33;97182.63;10376699;28;20122;-64
2023/08/05 20:06:39;;;;;;;3.95;2.30;;;;;;;16.21;84.85;97174.19;10376251;28;20104;-64
2023/08/05 20:11:59;;;;;;;3.50;2.28;;;;;;;16.20;84.58;97149.47;10377205;28;20057;-65
2023/08/05 20:17:21;;;;;;;5.50;2.45;;;;;;;16.18;85.04;97155.75;10376286;28;20141;-64
2023/08/05 20:22:44;;;;;;;3.72;2.20;;;;;;;16.15;84.72;97147.88;10375701;28;20149;-64
2023/08/05 20:28:05;;;;;;;3.53;2.42;;;;;;;16.09;85.09;97139.94;10376508;28;20131;-65
2023/08/05 20:33:25;;;;;;;3.50;2.30;;;;;;;16.05;85.18;97114.47;10376343;28;20052;-65
2023/08/05 20:38:46;;;;;;;2.63;2.05;;;;;;;16.03;85.58;97098.22;10376196;28;20066;-64
2023/08/05 20:44:07;;;;;;;6.05;2.33;;;;;;;16.06;85.71;97098.28;10375769;28;20046;-65
2023/08/05 20:49:27;;;;;;;4.07;2.60;;;;;;;16.03;85.27;97106.69;10375899;28;20164;-64
2023/08/05 20:54:48;;;;;;;4.07;2.03;;;;;;;16.01;85.81;97108.66;10374601;28;20121;-64
2023/08/05 21:00:10;;;;;;;3.72;2.28;;;;;;;16.02;85.94;97104.50;10374336;28;20092;-65
2023/08/05 21:05:32;;;;;;;3.87;2.33;;;;;;;16.02;85.97;97124.94;10375261;28;20061;-64
2023/08/05 21:11:07;;;;;;;4.10;2.25;;;;;;;16.02;85.93;97110.13;10375150;28;20053;-64
2023/08/05 21:16:27;;;;;;;3.17;2.22;;;;;;;16.07;85.98;97088.47;10375053;28;20128;-65
2023/08/05 21:21:48;;;;;;;4.07;2.38;;;;;;;16.06;86.33;97070.88;10374981;28;20049;-65
2023/08/05 21:27:10;;;;;;;3.33;2.40;;;;;;;16.04;86.32;97045.47;10373675;28;20488;-65
2023/08/05 21:32:30;;;;;;;4.75;2.35;;;;;;;15.99;86.27;97026.97;10374579;28;20046;-64
2023/08/05 21:37:51;;;;;;;3.58;2.67;;;;;;;15.94;86.26;97042.28;10373480;28;20515;-64
2023/08/05 21:43:15;;;;;;;5.28;2.83;;;;;;;15.92;86.60;97039.38;10374371;28;20117;-65
2023/08/05 21:48:36;;;;;;;4.38;2.75;;;;;;;15.89;86.79;97049.13;10359851;28;20070;-64
2023/08/05 21:53:58;;;;;;;3.70;2.90;;;;;;;15.86;86.96;97048.34;10374183;28;20121;-64
2023/08/05 21:59:20;;;;;;;5.38;2.88;;;;;;;15.88;87.07;97042.78;10373903;28;20038;-64
2023/08/05 22:04:46;;;;;;;3.53;2.47;;;;;;;15.88;86.92;97034.34;10373747;28;20057;-65
2023/08/05 22:10:07;;;;;;;3.72;2.40;;;;;;;15.87;87.15;97024.47;10373953;28;20050;-64
2023/08/05 22:15:28;;;;;;;3.85;2.53;;;;;;;15.85;87.11;97013.16;10373745;28;20065;-64
2023/08/05 22:20:52;;;;;;;5.07;2.67;;;;;;;15.88;87.11;96994.22;10372757;28;20046;-65
2023/08/05 22:26:13;;;;;;;2.90;2.20;;;;;;;15.85;87.34;96996.25;10373609;28;20052;-65
2023/08/05 22:31:37;;;;;;;3.67;2.28;;;;;;;15.85;87.39;97001.16;10373561;28;20492;-64
2023/08/05 22:36:57;;;;;;;3.78;2.35;;;;;;;15.83;87.41;96984.22;10373710;28;20058;-64
2023/08/05 22:42:18;;;;;;;5.43;2.55;;;;;;;15.84;87.73;96977.94;10384091;28;20125;-66
2023/08/05 22:47:39;;;;;;;3.33;2.70;;;;;;;15.87;87.77;96975.91;10382462;28;20181;-64
2023/08/05 22:53:00;;;;;;;3.55;2.35;;;;;;;15.84;87.63;96969.50;10380217;28;20041;-65
2023/08/05 22:58:20;;;;;;;3.88;2.60;;;;;;;15.77;87.56;96972.75;10379099;28;20107;-64
2023/08/05 23:03:41;;;;;;;3.47;2.58;;;;;;;15.75;88.02;96984.66;10456537;22;20057;-63
2023/08/05 23:09:02;;;;;;;4.43;2.53;;;;;;;15.77;87.89;96981.19;10420496;28;20388;-64
2023/08/05 23:14:23;;;;;;;3.17;2.78;;;;;;;15.75;88.03;96981.84;10405685;28;20470;-64
2023/08/05 23:19:44;;;;;;;7.88;2.75;;;;;;;15.72;88.14;96969.78;10420011;28;20487;-63
2023/08/05 23:25:06;;;;;;;3.17;2.60;;;;;;;15.71;88.70;96971.13;10419981;28;20042;-64
2023/08/05 23:30:27;;;;;;;4.75;3.05;;;;;;;15.74;88.63;96967.06;10405163;28;20068;-63
2023/08/05 23:35:51;;;;;;;3.47;2.40;;;;;;;15.76;88.41;96962.84;10419532;28;20096;-64
2023/08/05 23:41:12;;;;;;;3.92;2.53;;;;;;;15.75;88.67;96959.31;10418336;28;20095;-64
2023/08/05 23:46:33;;;;;;;2.85;2.10;;;;;;;15.66;88.30;96949.88;10404569;28;20157;-63
2023/08/05 23:51:54;;;;;;;3.42;2.17;;;;;;;15.67;88.44;96948.50;10417136;28;20064;-64
2023/08/05 23:57:15;;;;;;;3.05;1.65;;;;;;;15.63;88.83;96942.75;10417966;28;20041;-64
